sensor_id;sensor_type;location;lat;lon;timestamp;P1;durP1;ratioP1;P2;durP2;ratioP2
17422;SDS011;8829;47.932;7.810;2024-01-15T00:02:24;27.27;;;14.30;;
17422;SDS011;8829;47.932;7.810;2024-01-15T00:04:51;26.00;;;12.70;;
17422;SDS011;8829;47.932;7.810;2024-01-15T00:07:19;27.00;;;14.97;;
17422;SDS011;8829;47.932;7.810;2024-01-15T00:09:46;28.70;;;14.20;;
17422;SDS011;8829;47.932;7.810;2024-01-15T00:12:12;25.57;;;14.30;;
17422;SDS011;8829;47.932;7.810;2024-01-15T00:14:39;23.47;;;12.73;;
17422;SDS011;8829;47.932;7.810;2024-01-15T00:17:06;24.83;;;13.83;;
17422;SDS011;8829;47.932;7.810;2024-01-15T00:19:32;24.67;;;13.33;;
17422;SDS011;8829;47.932;7.810;2024-01-15T00:21:59;28.17;;;13.80;;
17422;SDS011;8829;47.932;7.810;2024-01-15T00:24:27;29.90;;;15.70;;
17422;SDS011;8829;47.932;7.810;2024-01-15T00:26:54;30.73;;;15.03;;
17422;SDS011;8829;47.932;7.810;2024-01-15T00:29:21;26.80;;;14.17;;
17422;SDS011;8829;47.932;7.810;2024-01-15T00:31:47;32.13;;;15.97;;
17422;SDS011;8829;47.932;7.810;2024-01-15T00:34:14;28.07;;;14.87;;
17422;SDS011;8829;47.932;7.810;2024-01-15T00:36:41;28.67;;;14.83;;
17422;SDS011;8829;47.932;7.810;2024-01-15T00:39:07;29.93;;;16.00;;
17422;SDS011;8829;47.932;7.810;2024-01-15T00:41:37;26.27;;;13.67;;
17422;SDS011;8829;47.932;7.810;2024-01-15T00:44:04;27.17;;;14.23;;
17422;SDS011;8829;47.932;7.810;2024-01-15T00:46:33;30.17;;;14.57;;
17422;SDS011;8829;47.932;7.810;2024-01-15T00:49:07;26.60;;;13.27;;
17422;SDS011;8829;47.932;7.810;2024-01-15T00:51:33;29.17;;;15.13;;
17422;SDS011;8829;47.932;7.810;2024-01-15T00:54:00;23.87;;;13.13;;
17422;SDS011;8829;47.932;7.810;2024-01-15T00:56:27;26.80;;;14.83;;
17422;SDS011;8829;47.932;7.810;2024-01-15T00:58:55;27.40;;;12.33;;
17422;SDS011;8829;47.932;7.810;2024-01-15T01:01:22;22.63;;;13.43;;
17422;SDS011;8829;47.932;7.810;2024-01-15T01:03:50;24.70;;;12.63;;
17422;SDS011;8829;47.932;7.810;2024-01-15T01:06:16;24.93;;;12.97;;
17422;SDS011;8829;47.932;7.810;2024-01-15T01:08:43;18.50;;;10.07;;
17422;SDS011;8829;47.932;7.810;2024-01-15T01:11:12;20.90;;;11.60;;
17422;SDS011;8829;47.932;7.810;2024-01-15T01:13:39;17.70;;;9.47;;
17422;SDS011;8829;47.932;7.810;2024-01-15T01:16:07;16.73;;;8.93;;
17422;SDS011;8829;47.932;7.810;2024-01-15T01:18:35;12.57;;;8.20;;
17422;SDS011;8829;47.932;7.810;2024-01-15T01:21:02;14.93;;;8.23;;
17422;SDS011;8829;47.932;7.810;2024-01-15T01:23:29;14.73;;;8.23;;
17422;SDS011;8829;47.932;7.810;2024-01-15T01:25:56;20.60;;;9.77;;
17422;SDS011;8829;47.932;7.810;2024-01-15T01:28:23;18.70;;;9.23;;
17422;SDS011;8829;47.932;7.810;2024-01-15T01:30:50;18.93;;;9.57;;
17422;SDS011;8829;47.932;7.810;2024-01-15T01:33:20;19.53;;;9.47;;
17422;SDS011;8829;47.932;7.810;2024-01-15T01:35:47;20.60;;;10.20;;
17422;SDS011;8829;47.932;7.810;2024-01-15T01:38:14;19.93;;;9.80;;
17422;SDS011;8829;47.932;7.810;2024-01-15T01:40:40;11.50;;;7.67;;
17422;SDS011;8829;47.932;7.810;2024-01-15T01:43:08;16.60;;;8.80;;
17422;SDS011;8829;47.932;7.810;2024-01-15T01:45:35;15.33;;;8.23;;
17422;SDS011;8829;47.932;7.810;2024-01-15T01:48:04;13.57;;;8.23;;
17422;SDS011;8829;47.932;7.810;2024-01-15T01:50:32;10.43;;;6.40;;
17422;SDS011;8829;47.932;7.810;2024-01-15T01:53:00;8.00;;;4.10;;
17422;SDS011;8829;47.932;7.810;2024-01-15T01:55:29;6.63;;;4.57;;
17422;SDS011;8829;47.932;7.810;2024-01-15T01:57:58;7.20;;;4.43;;
17422;SDS011;8829;47.932;7.810;2024-01-15T02:00:25;6.53;;;4.20;;
17422;SDS011;8829;47.932;7.810;2024-01-15T02:02:52;6.57;;;4.13;;
17422;SDS011;8829;47.932;7.810;2024-01-15T02:05:19;8.37;;;4.57;;
17422;SDS011;8829;47.932;7.810;2024-01-15T02:07:49;8.83;;;4.87;;
17422;SDS011;8829;47.932;7.810;2024-01-15T02:10:16;8.73;;;5.97;;
17422;SDS011;8829;47.932;7.810;2024-01-15T02:12:43;9.70;;;6.37;;
17422;SDS011;8829;47.932;7.810;2024-01-15T02:15:10;13.03;;;8.00;;
17422;SDS011;8829;47.932;7.810;2024-01-15T02:20:22;12.00;;;7.27;;
17422;SDS011;8829;47.932;7.810;2024-01-15T02:22:52;12.90;;;8.43;;
17422;SDS011;8829;47.932;7.810;2024-01-15T02:25:20;14.17;;;8.80;;
17422;SDS011;8829;47.932;7.810;2024-01-15T02:27:47;15.90;;;9.57;;
17422;SDS011;8829;47.932;7.810;2024-01-15T02:30:14;13.93;;;8.67;;
17422;SDS011;8829;47.932;7.810;2024-01-15T02:32:43;14.77;;;9.07;;
17422;SDS011;8829;47.932;7.810;2024-01-15T02:35:09;15.40;;;8.63;;
17422;SDS011;8829;47.932;7.810;2024-01-15T02:37:36;14.10;;;7.97;;
17422;SDS011;8829;47.932;7.810;2024-01-15T02:40:03;11.50;;;7.90;;
17422;SDS011;8829;47.932;7.810;2024-01-15T02:42:32;15.67;;;8.43;;
17422;SDS011;8829;47.932;7.810;2024-01-15T02:44:59;11.87;;;7.67;;
17422;SDS011;8829;47.932;7.810;2024-01-15T02:47:25;13.87;;;7.73;;
17422;SDS011;8829;47.932;7.810;2024-01-15T02:49:52;16.43;;;8.90;;
17422;SDS011;8829;47.932;7.810;2024-01-15T02:52:19;17.70;;;10.30;;
17422;SDS011;8829;47.932;7.810;2024-01-15T02:54:46;17.20;;;9.57;;
17422;SDS011;8829;47.932;7.810;2024-01-15T02:57:13;16.23;;;9.97;;
17422;SDS011;8829;47.932;7.810;2024-01-15T02:59:41;18.27;;;10.73;;
17422;SDS011;8829;47.932;7.810;2024-01-15T03:02:08;21.30;;;11.73;;
17422;SDS011;8829;47.932;7.810;2024-01-15T03:04:34;18.50;;;10.20;;
17422;SDS011;8829;47.932;7.810;2024-01-15T03:07:01;19.23;;;11.30;;
17422;SDS011;8829;47.932;7.810;2024-01-15T03:09:28;20.00;;;10.63;;
17422;SDS011;8829;47.932;7.810;2024-01-15T03:11:54;20.57;;;10.33;;
17422;SDS011;8829;47.932;7.810;2024-01-15T03:14:21;23.73;;;12.40;;
17422;SDS011;8829;47.932;7.810;2024-01-15T03:16:51;19.50;;;10.77;;
17422;SDS011;8829;47.932;7.810;2024-01-15T03:19:18;23.47;;;12.13;;
17422;SDS011;8829;47.932;7.810;2024-01-15T03:21:45;22.27;;;12.20;;
17422;SDS011;8829;47.932;7.810;2024-01-15T03:24:12;21.30;;;12.27;;
17422;SDS011;8829;47.932;7.810;2024-01-15T03:26:39;24.23;;;12.70;;
17422;SDS011;8829;47.932;7.810;2024-01-15T03:29:05;21.43;;;11.80;;
17422;SDS011;8829;47.932;7.810;2024-01-15T03:31:33;21.80;;;12.27;;
17422;SDS011;8829;47.932;7.810;2024-01-15T03:34:01;20.83;;;12.23;;
17422;SDS011;8829;47.932;7.810;2024-01-15T03:36:28;22.57;;;10.80;;
17422;SDS011;8829;47.932;7.810;2024-01-15T03:38:55;21.63;;;11.80;;
17422;SDS011;8829;47.932;7.810;2024-01-15T03:41:22;18.57;;;10.80;;
17422;SDS011;8829;47.932;7.810;2024-01-15T03:43:48;23.30;;;11.40;;
17422;SDS011;8829;47.932;7.810;2024-01-15T03:46:15;21.60;;;11.07;;
17422;SDS011;8829;47.932;7.810;2024-01-15T03:48:42;22.50;;;11.47;;
17422;SDS011;8829;47.932;7.810;2024-01-15T03:51:10;18.87;;;11.07;;
17422;SDS011;8829;47.932;7.810;2024-01-15T03:53:37;21.37;;;11.87;;
17422;SDS011;8829;47.932;7.810;2024-01-15T03:56:04;19.50;;;9.77;;
17422;SDS011;8829;47.932;7.810;2024-01-15T03:58:31;18.63;;;10.50;;
17422;SDS011;8829;47.932;7.810;2024-01-15T04:00:58;20.83;;;10.57;;
17422;SDS011;8829;47.932;7.810;2024-01-15T04:03:24;18.10;;;10.30;;
17422;SDS011;8829;47.932;7.810;2024-01-15T04:05:51;19.67;;;10.23;;
17422;SDS011;8829;47.932;7.810;2024-01-15T04:08:19;16.17;;;8.70;;
17422;SDS011;8829;47.932;7.810;2024-01-15T04:10:46;15.30;;;8.80;;
17422;SDS011;8829;47.932;7.810;2024-01-15T04:13:13;16.00;;;8.57;;
17422;SDS011;8829;47.932;7.810;2024-01-15T04:15:39;14.33;;;8.70;;
17422;SDS011;8829;47.932;7.810;2024-01-15T04:18:06;12.87;;;7.63;;
17422;SDS011;8829;47.932;7.810;2024-01-15T04:20:33;13.00;;;7.80;;
17422;SDS011;8829;47.932;7.810;2024-01-15T04:23:01;12.43;;;7.47;;
17422;SDS011;8829;47.932;7.810;2024-01-15T04:25:29;14.17;;;7.93;;
17422;SDS011;8829;47.932;7.810;2024-01-15T04:27:56;14.73;;;8.90;;
17422;SDS011;8829;47.932;7.810;2024-01-15T04:30:22;16.03;;;8.67;;
17422;SDS011;8829;47.932;7.810;2024-01-15T04:32:50;11.63;;;7.43;;
17422;SDS011;8829;47.932;7.810;2024-01-15T04:35:17;12.63;;;7.73;;
17422;SDS011;8829;47.932;7.810;2024-01-15T04:37:43;14.77;;;7.73;;
17422;SDS011;8829;47.932;7.810;2024-01-15T04:40:10;12.73;;;7.27;;
17422;SDS011;8829;47.932;7.810;2024-01-15T04:42:39;15.67;;;7.90;;
17422;SDS011;8829;47.932;7.810;2024-01-15T04:45:05;13.97;;;8.13;;
17422;SDS011;8829;47.932;7.810;2024-01-15T04:47:32;13.23;;;7.80;;
17422;SDS011;8829;47.932;7.810;2024-01-15T04:50:01;12.73;;;7.77;;
17422;SDS011;8829;47.932;7.810;2024-01-15T04:52:29;13.03;;;7.93;;
17422;SDS011;8829;47.932;7.810;2024-01-15T04:54:55;17.67;;;9.87;;
17422;SDS011;8829;47.932;7.810;2024-01-15T04:57:22;30.73;;;16.30;;
17422;SDS011;8829;47.932;7.810;2024-01-15T04:59:50;84.87;;;37.97;;
17422;SDS011;8829;47.932;7.810;2024-01-15T05:02:17;189.40;;;81.73;;
17422;SDS011;8829;47.932;7.810;2024-01-15T05:04:43;66.60;;;31.63;;
17422;SDS011;8829;47.932;7.810;2024-01-15T05:07:10;25.83;;;13.63;;
17422;SDS011;8829;47.932;7.810;2024-01-15T05:09:37;21.83;;;11.70;;
17422;SDS011;8829;47.932;7.810;2024-01-15T05:12:04;20.93;;;11.00;;
17422;SDS011;8829;47.932;7.810;2024-01-15T05:14:30;21.13;;;10.90;;
17422;SDS011;8829;47.932;7.810;2024-01-15T05:16:59;21.00;;;11.23;;
17422;SDS011;8829;47.932;7.810;2024-01-15T05:19:25;20.40;;;11.30;;
17422;SDS011;8829;47.932;7.810;2024-01-15T05:21:52;23.03;;;12.83;;
17422;SDS011;8829;47.932;7.810;2024-01-15T05:24:19;25.80;;;13.67;;
17422;SDS011;8829;47.932;7.810;2024-01-15T05:26:45;22.57;;;12.53;;
17422;SDS011;8829;47.932;7.810;2024-01-15T05:29:12;25.87;;;13.77;;
17422;SDS011;8829;47.932;7.810;2024-01-15T05:31:39;25.20;;;12.87;;
17422;SDS011;8829;47.932;7.810;2024-01-15T05:34:07;25.87;;;14.33;;
17422;SDS011;8829;47.932;7.810;2024-01-15T05:36:34;26.50;;;13.73;;
17422;SDS011;8829;47.932;7.810;2024-01-15T05:39:01;27.17;;;13.63;;
17422;SDS011;8829;47.932;7.810;2024-01-15T05:41:28;27.87;;;13.37;;
17422;SDS011;8829;47.932;7.810;2024-01-15T05:43:55;22.57;;;13.13;;
17422;SDS011;8829;47.932;7.810;2024-01-15T05:46:21;22.63;;;12.97;;
17422;SDS011;8829;47.932;7.810;2024-01-15T05:48:48;23.33;;;13.07;;
17422;SDS011;8829;47.932;7.810;2024-01-15T05:51:16;23.77;;;13.43;;
17422;SDS011;8829;47.932;7.810;2024-01-15T05:53:44;26.93;;;13.50;;
17422;SDS011;8829;47.932;7.810;2024-01-15T05:56:11;22.37;;;12.63;;
17422;SDS011;8829;47.932;7.810;2024-01-15T05:58:38;25.43;;;12.60;;
17422;SDS011;8829;47.932;7.810;2024-01-15T06:01:04;30.30;;;14.93;;
17422;SDS011;8829;47.932;7.810;2024-01-15T06:03:31;23.37;;;12.50;;
17422;SDS011;8829;47.932;7.810;2024-01-15T06:05:58;24.63;;;12.77;;
17422;SDS011;8829;47.932;7.810;2024-01-15T06:08:26;21.53;;;13.43;;
17422;SDS011;8829;47.932;7.810;2024-01-15T06:10:55;26.43;;;13.93;;
17422;SDS011;8829;47.932;7.810;2024-01-15T06:13:22;24.50;;;13.50;;
17422;SDS011;8829;47.932;7.810;2024-01-15T06:15:49;28.03;;;14.40;;
17422;SDS011;8829;47.932;7.810;2024-01-15T06:18:15;24.13;;;13.43;;
17422;SDS011;8829;47.932;7.810;2024-01-15T06:20:43;23.47;;;12.93;;
17422;SDS011;8829;47.932;7.810;2024-01-15T06:23:10;24.10;;;14.50;;
17422;SDS011;8829;47.932;7.810;2024-01-15T06:25:38;22.70;;;13.73;;
17422;SDS011;8829;47.932;7.810;2024-01-15T06:28:06;28.63;;;13.80;;
17422;SDS011;8829;47.932;7.810;2024-01-15T06:30:33;24.77;;;13.43;;
17422;SDS011;8829;47.932;7.810;2024-01-15T06:33:00;28.47;;;13.90;;
17422;SDS011;8829;47.932;7.810;2024-01-15T06:35:26;25.27;;;13.63;;
17422;SDS011;8829;47.932;7.810;2024-01-15T06:37:53;25.17;;;12.80;;
17422;SDS011;8829;47.932;7.810;2024-01-15T06:40:20;24.20;;;12.20;;
17422;SDS011;8829;47.932;7.810;2024-01-15T06:42:48;25.87;;;13.10;;
17422;SDS011;8829;47.932;7.810;2024-01-15T06:45:14;24.37;;;13.70;;
17422;SDS011;8829;47.932;7.810;2024-01-15T06:47:41;24.83;;;13.17;;
17422;SDS011;8829;47.932;7.810;2024-01-15T06:50:09;26.27;;;13.17;;
17422;SDS011;8829;47.932;7.810;2024-01-15T06:52:36;29.30;;;14.83;;
17422;SDS011;8829;47.932;7.810;2024-01-15T06:55:03;29.63;;;14.83;;
17422;SDS011;8829;47.932;7.810;2024-01-15T06:57:31;23.47;;;15.83;;
17422;SDS011;8829;47.932;7.810;2024-01-15T06:59:59;23.40;;;12.80;;
17422;SDS011;8829;47.932;7.810;2024-01-15T07:02:26;21.30;;;12.43;;
17422;SDS011;8829;47.932;7.810;2024-01-15T07:04:52;21.77;;;11.27;;
17422;SDS011;8829;47.932;7.810;2024-01-15T07:07:19;19.63;;;11.23;;
17422;SDS011;8829;47.932;7.810;2024-01-15T07:09:46;22.73;;;11.37;;
17422;SDS011;8829;47.932;7.810;2024-01-15T07:12:12;14.73;;;8.27;;
17422;SDS011;8829;47.932;7.810;2024-01-15T07:14:40;15.60;;;8.43;;
17422;SDS011;8829;47.932;7.810;2024-01-15T07:17:08;12.40;;;7.20;;
17422;SDS011;8829;47.932;7.810;2024-01-15T07:19:35;10.80;;;6.83;;
17422;SDS011;8829;47.932;7.810;2024-01-15T07:22:02;11.40;;;6.83;;
17422;SDS011;8829;47.932;7.810;2024-01-15T07:24:29;11.13;;;6.27;;
17422;SDS011;8829;47.932;7.810;2024-01-15T07:26:56;10.90;;;6.83;;
17422;SDS011;8829;47.932;7.810;2024-01-15T07:29:22;11.03;;;7.40;;
17422;SDS011;8829;47.932;7.810;2024-01-15T07:31:49;11.27;;;6.83;;
17422;SDS011;8829;47.932;7.810;2024-01-15T07:34:17;11.33;;;6.90;;
17422;SDS011;8829;47.932;7.810;2024-01-15T07:36:44;7.60;;;5.20;;
17422;SDS011;8829;47.932;7.810;2024-01-15T07:39:11;8.40;;;5.27;;
17422;SDS011;8829;47.932;7.810;2024-01-15T07:41:38;6.27;;;4.67;;
17422;SDS011;8829;47.932;7.810;2024-01-15T07:44:05;7.40;;;4.00;;
17422;SDS011;8829;47.932;7.810;2024-01-15T07:46:32;5.80;;;3.97;;
17422;SDS011;8829;47.932;7.810;2024-01-15T07:48:58;4.27;;;3.60;;
17422;SDS011;8829;47.932;7.810;2024-01-15T07:51:26;6.03;;;3.70;;
17422;SDS011;8829;47.932;7.810;2024-01-15T07:53:54;4.73;;;3.70;;
17422;SDS011;8829;47.932;7.810;2024-01-15T07:56:21;4.60;;;3.23;;
17422;SDS011;8829;47.932;7.810;2024-01-15T07:58:47;5.37;;;3.70;;
17422;SDS011;8829;47.932;7.810;2024-01-15T08:01:14;5.57;;;3.73;;
17422;SDS011;8829;47.932;7.810;2024-01-15T08:03:41;7.63;;;4.33;;
17422;SDS011;8829;47.932;7.810;2024-01-15T08:06:08;7.67;;;5.00;;
17422;SDS011;8829;47.932;7.810;2024-01-15T08:08:37;9.37;;;6.10;;
17422;SDS011;8829;47.932;7.810;2024-01-15T08:11:03;9.07;;;5.60;;
17422;SDS011;8829;47.932;7.810;2024-01-15T08:13:30;5.77;;;4.17;;
17422;SDS011;8829;47.932;7.810;2024-01-15T08:15:57;5.30;;;3.40;;
17422;SDS011;8829;47.932;7.810;2024-01-15T08:18:24;8.10;;;5.07;;
17422;SDS011;8829;47.932;7.810;2024-01-15T08:20:51;8.13;;;4.73;;
17422;SDS011;8829;47.932;7.810;2024-01-15T08:23:20;4.90;;;3.87;;
17422;SDS011;8829;47.932;7.810;2024-01-15T08:25:48;7.10;;;5.00;;
17422;SDS011;8829;47.932;7.810;2024-01-15T08:28:15;5.20;;;3.93;;
17422;SDS011;8829;47.932;7.810;2024-01-15T08:30:42;6.53;;;4.40;;
17422;SDS011;8829;47.932;7.810;2024-01-15T08:33:11;5.63;;;4.20;;
17422;SDS011;8829;47.932;7.810;2024-01-15T08:35:38;6.17;;;4.40;;
17422;SDS011;8829;47.932;7.810;2024-01-15T08:38:05;6.20;;;4.33;;
17422;SDS011;8829;47.932;7.810;2024-01-15T08:40:32;5.80;;;4.27;;
17422;SDS011;8829;47.932;7.810;2024-01-15T08:43:01;6.33;;;3.17;;
17422;SDS011;8829;47.932;7.810;2024-01-15T08:45:28;4.50;;;3.07;;
17422;SDS011;8829;47.932;7.810;2024-01-15T08:47:54;3.10;;;2.33;;
17422;SDS011;8829;47.932;7.810;2024-01-15T08:50:21;2.63;;;1.93;;
17422;SDS011;8829;47.932;7.810;2024-01-15T08:52:48;2.93;;;2.50;;
17422;SDS011;8829;47.932;7.810;2024-01-15T08:55:15;3.47;;;3.13;;
17422;SDS011;8829;47.932;7.810;2024-01-15T08:57:41;3.37;;;2.80;;
17422;SDS011;8829;47.932;7.810;2024-01-15T09:00:10;3.23;;;2.90;;
17422;SDS011;8829;47.932;7.810;2024-01-15T09:02:38;3.50;;;3.20;;
17422;SDS011;8829;47.932;7.810;2024-01-15T09:05:05;4.80;;;3.50;;
17422;SDS011;8829;47.932;7.810;2024-01-15T09:07:32;4.63;;;3.63;;
17422;SDS011;8829;47.932;7.810;2024-01-15T09:09:58;6.83;;;4.30;;
17422;SDS011;8829;47.932;7.810;2024-01-15T09:12:26;6.90;;;4.90;;
17422;SDS011;8829;47.932;7.810;2024-01-15T09:14:54;3.80;;;3.27;;
17422;SDS011;8829;47.932;7.810;2024-01-15T09:17:25;3.23;;;2.90;;
17422;SDS011;8829;47.932;7.810;2024-01-15T09:19:53;4.10;;;2.93;;
17422;SDS011;8829;47.932;7.810;2024-01-15T09:22:20;3.00;;;2.67;;
17422;SDS011;8829;47.932;7.810;2024-01-15T09:24:50;5.03;;;2.40;;
17422;SDS011;8829;47.932;7.810;2024-01-15T09:27:16;2.40;;;2.10;;
17422;SDS011;8829;47.932;7.810;2024-01-15T09:29:43;2.33;;;2.00;;
17422;SDS011;8829;47.932;7.810;2024-01-15T09:32:11;1.70;;;1.60;;
17422;SDS011;8829;47.932;7.810;2024-01-15T09:34:39;2.10;;;1.90;;
17422;SDS011;8829;47.932;7.810;2024-01-15T09:37:06;2.37;;;2.00;;
17422;SDS011;8829;47.932;7.810;2024-01-15T09:39:33;2.63;;;1.90;;
17422;SDS011;8829;47.932;7.810;2024-01-15T09:41:59;2.07;;;1.87;;
17422;SDS011;8829;47.932;7.810;2024-01-15T09:44:27;2.80;;;2.50;;
17422;SDS011;8829;47.932;7.810;2024-01-15T09:46:55;3.07;;;2.77;;
17422;SDS011;8829;47.932;7.810;2024-01-15T09:49:22;2.90;;;2.70;;
17422;SDS011;8829;47.932;7.810;2024-01-15T09:51:50;3.70;;;3.33;;
17422;SDS011;8829;47.932;7.810;2024-01-15T09:54:17;5.40;;;2.80;;
17422;SDS011;8829;47.932;7.810;2024-01-15T09:56:45;4.00;;;3.57;;
17422;SDS011;8829;47.932;7.810;2024-01-15T09:59:13;3.67;;;3.20;;
17422;SDS011;8829;47.932;7.810;2024-01-15T10:01:41;5.60;;;3.70;;
17422;SDS011;8829;47.932;7.810;2024-01-15T10:04:09;4.50;;;3.05;;
17422;SDS011;8829;47.932;7.810;2024-01-15T10:06:37;3.10;;;2.83;;
17422;SDS011;8829;47.932;7.810;2024-01-15T10:09:06;3.93;;;2.90;;
17422;SDS011;8829;47.932;7.810;2024-01-15T10:11:34;4.70;;;3.63;;
17422;SDS011;8829;47.932;7.810;2024-01-15T10:14:02;5.37;;;3.70;;
17422;SDS011;8829;47.932;7.810;2024-01-15T10:16:29;6.03;;;4.20;;
17422;SDS011;8829;47.932;7.810;2024-01-15T10:18:56;5.93;;;4.20;;
17422;SDS011;8829;47.932;7.810;2024-01-15T10:21:23;5.33;;;4.20;;
17422;SDS011;8829;47.932;7.810;2024-01-15T10:23:51;5.90;;;4.40;;
17422;SDS011;8829;47.932;7.810;2024-01-15T10:26:19;8.53;;;4.83;;
17422;SDS011;8829;47.932;7.810;2024-01-15T10:28:50;7.78;;;4.72;;
17422;SDS011;8829;47.932;7.810;2024-01-15T10:31:18;9.03;;;5.03;;
17422;SDS011;8829;47.932;7.810;2024-01-15T10:33:46;6.70;;;4.87;;
17422;SDS011;8829;47.932;7.810;2024-01-15T10:36:13;9.20;;;5.03;;
17422;SDS011;8829;47.932;7.810;2024-01-15T10:38:41;9.17;;;5.20;;
17422;SDS011;8829;47.932;7.810;2024-01-15T10:41:08;8.87;;;5.43;;
17422;SDS011;8829;47.932;7.810;2024-01-15T10:43:37;9.93;;;5.80;;
17422;SDS011;8829;47.932;7.810;2024-01-15T10:46:06;9.23;;;6.10;;
17422;SDS011;8829;47.932;7.810;2024-01-15T10:48:33;8.80;;;5.90;;
17422;SDS011;8829;47.932;7.810;2024-01-15T10:51:00;9.77;;;6.77;;
17422;SDS011;8829;47.932;7.810;2024-01-15T10:53:34;12.27;;;6.73;;
17422;SDS011;8829;47.932;7.810;2024-01-15T10:56:04;12.47;;;8.40;;
17422;SDS011;8829;47.932;7.810;2024-01-15T10:58:33;15.03;;;8.97;;
17422;SDS011;8829;47.932;7.810;2024-01-15T11:01:01;13.00;;;7.53;;
17422;SDS011;8829;47.932;7.810;2024-01-15T11:03:31;10.33;;;7.13;;
17422;SDS011;8829;47.932;7.810;2024-01-15T11:05:58;12.30;;;7.83;;
17422;SDS011;8829;47.932;7.810;2024-01-15T11:08:25;13.33;;;8.07;;
17422;SDS011;8829;47.932;7.810;2024-01-15T11:10:53;12.30;;;8.00;;
17422;SDS011;8829;47.932;7.810;2024-01-15T11:13:20;12.43;;;8.83;;
17422;SDS011;8829;47.932;7.810;2024-01-15T11:15:58;13.90;;;10.27;;
17422;SDS011;8829;47.932;7.810;2024-01-15T11:18:28;12.67;;;8.40;;
17422;SDS011;8829;47.932;7.810;2024-01-15T11:23:48;14.07;;;7.90;;
17422;SDS011;8829;47.932;7.810;2024-01-15T11:26:32;12.37;;;6.93;;
17422;SDS011;8829;47.932;7.810;2024-01-15T11:29:01;12.77;;;7.17;;
17422;SDS011;8829;47.932;7.810;2024-01-15T11:31:29;12.27;;;7.57;;
17422;SDS011;8829;47.932;7.810;2024-01-15T11:34:17;11.27;;;7.40;;
17422;SDS011;8829;47.932;7.810;2024-01-15T11:37:02;17.00;;;10.90;;
17422;SDS011;8829;47.932;7.810;2024-01-15T11:39:41;17.77;;;10.73;;
17422;SDS011;8829;47.932;7.810;2024-01-15T11:42:09;11.03;;;7.63;;
17422;SDS011;8829;47.932;7.810;2024-01-15T11:44:37;11.30;;;7.07;;
17422;SDS011;8829;47.932;7.810;2024-01-15T11:47:04;10.70;;;6.60;;
17422;SDS011;8829;47.932;7.810;2024-01-15T11:49:42;12.75;;;8.80;;
17422;SDS011;8829;47.932;7.810;2024-01-15T11:52:24;9.93;;;6.93;;
17422;SDS011;8829;47.932;7.810;2024-01-15T11:54:53;10.60;;;7.00;;
17422;SDS011;8829;47.932;7.810;2024-01-15T11:57:26;10.37;;;6.50;;
17422;SDS011;8829;47.932;7.810;2024-01-15T12:00:03;11.27;;;7.40;;
17422;SDS011;8829;47.932;7.810;2024-01-15T12:02:31;12.30;;;6.93;;
17422;SDS011;8829;47.932;7.810;2024-01-15T12:05:00;10.90;;;7.37;;
17422;SDS011;8829;47.932;7.810;2024-01-15T12:07:28;9.57;;;6.70;;
17422;SDS011;8829;47.932;7.810;2024-01-15T12:09:55;10.63;;;6.73;;
17422;SDS011;8829;47.932;7.810;2024-01-15T12:12:24;12.73;;;7.50;;
17422;SDS011;8829;47.932;7.810;2024-01-15T12:14:59;11.50;;;7.07;;
17422;SDS011;8829;47.932;7.810;2024-01-15T12:17:30;9.80;;;6.90;;
17422;SDS011;8829;47.932;7.810;2024-01-15T12:19:57;14.10;;;7.10;;
17422;SDS011;8829;47.932;7.810;2024-01-15T12:22:25;12.40;;;9.30;;
17422;SDS011;8829;47.932;7.810;2024-01-15T12:24:52;10.13;;;7.03;;
17422;SDS011;8829;47.932;7.810;2024-01-15T12:27:19;11.75;;;8.05;;
17422;SDS011;8829;47.932;7.810;2024-01-15T12:29:46;10.47;;;6.47;;
17422;SDS011;8829;47.932;7.810;2024-01-15T12:32:13;8.50;;;5.83;;
17422;SDS011;8829;47.932;7.810;2024-01-15T12:34:40;7.70;;;5.60;;
17422;SDS011;8829;47.932;7.810;2024-01-15T12:37:06;7.63;;;5.10;;
17422;SDS011;8829;47.932;7.810;2024-01-15T12:39:35;8.37;;;5.60;;
17422;SDS011;8829;47.932;7.810;2024-01-15T12:42:02;7.33;;;4.83;;
17422;SDS011;8829;47.932;7.810;2024-01-15T12:44:30;8.57;;;5.37;;
17422;SDS011;8829;47.932;7.810;2024-01-15T12:46:58;7.83;;;5.57;;
17422;SDS011;8829;47.932;7.810;2024-01-15T12:49:26;6.60;;;5.13;;
17422;SDS011;8829;47.932;7.810;2024-01-15T12:51:54;9.20;;;6.00;;
17422;SDS011;8829;47.932;7.810;2024-01-15T12:54:22;8.53;;;5.53;;
17422;SDS011;8829;47.932;7.810;2024-01-15T12:56:51;9.10;;;5.90;;
17422;SDS011;8829;47.932;7.810;2024-01-15T12:59:18;10.23;;;6.57;;
17422;SDS011;8829;47.932;7.810;2024-01-15T13:01:45;12.70;;;8.30;;
17422;SDS011;8829;47.932;7.810;2024-01-15T13:04:20;9.33;;;6.40;;
17422;SDS011;8829;47.932;7.810;2024-01-15T13:06:47;8.60;;;6.13;;
17422;SDS011;8829;47.932;7.810;2024-01-15T13:09:15;9.33;;;6.47;;
17422;SDS011;8829;47.932;7.810;2024-01-15T13:11:42;8.80;;;6.20;;
17422;SDS011;8829;47.932;7.810;2024-01-15T13:14:10;9.07;;;6.10;;
17422;SDS011;8829;47.932;7.810;2024-01-15T13:16:38;9.45;;;6.75;;
17422;SDS011;8829;47.932;7.810;2024-01-15T13:19:06;9.73;;;6.53;;
17422;SDS011;8829;47.932;7.810;2024-01-15T13:21:33;11.27;;;6.77;;
17422;SDS011;8829;47.932;7.810;2024-01-15T13:24:00;10.77;;;6.80;;
17422;SDS011;8829;47.932;7.810;2024-01-15T13:26:27;9.50;;;7.10;;
17422;SDS011;8829;47.932;7.810;2024-01-15T13:28:53;11.83;;;7.17;;
17422;SDS011;8829;47.932;7.810;2024-01-15T13:31:21;10.87;;;6.63;;
17422;SDS011;8829;47.932;7.810;2024-01-15T13:33:48;12.83;;;7.27;;
17422;SDS011;8829;47.932;7.810;2024-01-15T13:36:15;10.80;;;7.50;;
17422;SDS011;8829;47.932;7.810;2024-01-15T13:38:41;13.80;;;8.13;;
17422;SDS011;8829;47.932;7.810;2024-01-15T13:41:08;14.07;;;8.13;;
17422;SDS011;8829;47.932;7.810;2024-01-15T13:43:35;11.87;;;8.03;;
17422;SDS011;8829;47.932;7.810;2024-01-15T13:46:02;22.20;;;8.87;;
17422;SDS011;8829;47.932;7.810;2024-01-15T13:48:31;14.30;;;8.13;;
17422;SDS011;8829;47.932;7.810;2024-01-15T13:50:58;13.67;;;8.83;;
17422;SDS011;8829;47.932;7.810;2024-01-15T13:53:25;17.53;;;10.67;;
17422;SDS011;8829;47.932;7.810;2024-01-15T13:55:53;14.53;;;9.30;;
17422;SDS011;8829;47.932;7.810;2024-01-15T13:58:20;13.80;;;9.07;;
17422;SDS011;8829;47.932;7.810;2024-01-15T14:00:47;11.50;;;8.03;;
17422;SDS011;8829;47.932;7.810;2024-01-15T14:03:14;14.60;;;8.60;;
17422;SDS011;8829;47.932;7.810;2024-01-15T14:05:42;14.53;;;9.07;;
17422;SDS011;8829;47.932;7.810;2024-01-15T14:08:09;13.70;;;8.60;;
17422;SDS011;8829;47.932;7.810;2024-01-15T14:10:35;13.17;;;8.20;;
17422;SDS011;8829;47.932;7.810;2024-01-15T14:13:02;10.83;;;7.60;;
17422;SDS011;8829;47.932;7.810;2024-01-15T14:15:29;9.97;;;6.87;;
17422;SDS011;8829;47.932;7.810;2024-01-15T14:17:56;10.10;;;7.10;;
17422;SDS011;8829;47.932;7.810;2024-01-15T14:20:24;9.83;;;7.27;;
17422;SDS011;8829;47.932;7.810;2024-01-15T14:22:52;12.63;;;7.23;;
17422;SDS011;8829;47.932;7.810;2024-01-15T14:25:19;9.90;;;6.90;;
17422;SDS011;8829;47.932;7.810;2024-01-15T14:27:46;12.23;;;6.93;;
17422;SDS011;8829;47.932;7.810;2024-01-15T14:30:13;10.97;;;7.93;;
17422;SDS011;8829;47.932;7.810;2024-01-15T14:32:40;10.83;;;7.23;;
17422;SDS011;8829;47.932;7.810;2024-01-15T14:35:08;10.87;;;6.90;;
17422;SDS011;8829;47.932;7.810;2024-01-15T14:37:36;13.23;;;7.67;;
17422;SDS011;8829;47.932;7.810;2024-01-15T14:40:05;10.07;;;6.87;;
17422;SDS011;8829;47.932;7.810;2024-01-15T14:42:33;10.80;;;7.07;;
17422;SDS011;8829;47.932;7.810;2024-01-15T14:45:00;11.67;;;8.07;;
17422;SDS011;8829;47.932;7.810;2024-01-15T14:47:27;12.80;;;9.48;;
17422;SDS011;8829;47.932;7.810;2024-01-15T14:49:54;11.70;;;8.17;;
17422;SDS011;8829;47.932;7.810;2024-01-15T14:52:21;11.97;;;7.67;;
17422;SDS011;8829;47.932;7.810;2024-01-15T14:54:48;12.00;;;7.70;;
17422;SDS011;8829;47.932;7.810;2024-01-15T14:57:16;10.60;;;7.70;;